Time;durP1;ratioP1;P1;durP2;ratioP2;P2;SDS_P1;SDS_P2;PMS_P1;PMS_P2;Temp;Humidity;BMP_temperature;BMP_pressure;BME280_temperature;BME280_humidity;BME280_pressure;Samples;Min_cycle;Max_cycle;Signal;HPM_P1;HPM_P2
2021/12/19 00:00:04;;;;;;;17.88;7.55;;;;;;;5.41;100.00;103451.69;2100025;28;20063;-69
2021/12/19 00:01:42;;;;;;;15.05;8.18;;;;;;;5.40;100.00;103457.72;2100116;28;20028;-68
2021/12/19 00:04:17;;;;;;;14.48;7.22;;;;;;;5.40;100.00;103457.72;2109295;28;20043;-69
2021/12/19 00:09:14;;;;;;;14.75;8.70;;;;;;;5.36;100.00;103442.97;2107694;28;20036;-69
2021/12/19 00:10:14;;;;;;;16.47;8.30;;;;;;;5.35;100.00;103441.22;2107753;28;20023;-68
2021/12/19 00:11:15;;;;;;;17.50;8.23;;;;;;;5.34;100.00;103439.47;2107481;28;20039;-68
2021/12/19 00:12:15;;;;;;;12.52;7.45;;;;;;;5.31;100.00;103439.41;2107604;28;20044;-69
2021/12/19 00:13:16;;;;;;;13.67;7.63;;;;;;;5.31;100.00;103444.59;2107486;28;20046;-70
2021/12/19 00:14:18;;;;;;;12.77;7.17;;;;;;;5.30;100.00;103440.22;2107535;28;20024;-69
2021/12/19 00:15:18;;;;;;;14.68;7.50;;;;;;;5.30;100.00;103435.06;2107472;28;20461;-69
2021/12/19 00:16:20;;;;;;;17.48;8.52;;;;;;;5.30;100.00;103437.66;2107516;28;20028;-69
2021/12/19 00:17:20;;;;;;;16.13;8.30;;;;;;;5.29;100.00;103435.91;2107520;28;20028;-69
2021/12/19 00:18:21;;;;;;;16.87;8.53;;;;;;;5.30;100.00;103437.66;2107483;28;20392;-69
2021/12/19 00:19:22;;;;;;;15.30;8.15;;;;;;;5.29;100.00;103430.72;2107489;28;20060;-70
2021/12/19 00:20:22;;;;;;;13.93;8.05;;;;;;;5.31;100.00;103435.94;2107490;28;20028;-68
2021/12/19 00:21:24;;;;;;;12.10;6.50;;;;;;;5.30;100.00;103437.66;2107453;28;20020;-68
2021/12/19 00:22:24;;;;;;;17.27;8.13;;;;;;;5.29;100.00;103441.09;2107510;28;20085;-69
2021/12/19 00:23:26;;;;;;;14.07;8.80;;;;;;;5.32;100.00;103435.09;2107436;28;20519;-69
2021/12/19 00:24:26;;;;;;;13.30;7.60;;;;;;;5.32;100.00;103438.56;2107523;28;20434;-69
2021/12/19 00:25:26;;;;;;;17.30;9.13;;;;;;;5.32;100.00;103437.69;2107492;28;20028;-68
2021/12/19 00:26:26;;;;;;;14.57;7.83;;;;;;;5.30;100.00;103432.47;2107340;28;20048;-70
2021/12/19 00:27:27;;;;;;;15.40;8.57;;;;;;;5.28;100.00;103424.66;2098167;28;20533;-68
2021/12/19 00:28:27;;;;;;;14.03;7.97;;;;;;;5.29;100.00;103430.72;2098554;28;20033;-68
2021/12/19 00:29:27;;;;;;;17.80;8.37;;;;;;;5.30;100.00;103426.44;2106734;28;20496;-68
2021/12/19 00:30:28;;;;;;;14.47;8.00;;;;;;;5.31;100.00;103429.06;2106936;28;20027;-69
2021/12/19 00:31:28;;;;;;;12.43;7.80;;;;;;;5.31;100.00;103421.28;2107499;28;20028;-69
2021/12/19 00:32:28;;;;;;;12.73;6.90;;;;;;;5.31;100.00;103429.06;2098578;28;20025;-68
2021/12/19 00:33:29;;;;;;;16.93;8.97;;;;;;;5.31;100.00;103417.81;2098416;28;20032;-68
2021/12/19 00:34:29;;;;;;;15.43;7.88;;;;;;;5.32;100.00;103425.63;2098345;28;20032;-68
2021/12/19 00:35:29;;;;;;;11.87;7.23;;;;;;;5.32;100.00;103417.84;2098427;28;20021;-69
2021/12/19 00:36:29;;;;;;;13.53;7.60;;;;;;;5.32;100.00;103419.56;2107324;28;20031;-68
2021/12/19 00:37:30;;;;;;;13.93;6.90;;;;;;;5.31;100.00;103418.69;2107341;28;20097;-68
2021/12/19 00:38:31;;;;;;;12.77;7.20;;;;;;;5.31;100.00;103416.13;2107315;28;20024;-68
2021/12/19 00:39:31;;;;;;;13.25;7.38;;;;;;;5.31;100.00;103418.69;2107229;28;20036;-69
2021/12/19 00:40:32;;;;;;;15.10;8.63;;;;;;;5.29;100.00;103425.53;2107364;28;20024;-68
2021/12/19 00:41:33;;;;;;;13.70;7.68;;;;;;;5.28;100.00;103414.31;2098301;28;20044;-68
2021/12/19 00:42:36;;;;;;;12.73;6.00;;;;;;;5.29;100.00;103425.53;2098372;28;20440;-68
2021/12/19 00:43:45;;;;;;;14.57;9.10;;;;;;;5.27;100.00;103422.06;2098229;28;20025;-69
2021/12/19 00:44:45;;;;;;;16.48;9.25;;;;;;;5.24;100.00;103422.00;2099547;28;20020;-68
2021/12/19 00:45:47;;;;;;;16.20;8.57;;;;;;;5.23;100.00;103421.09;2107280;28;20538;-69
2021/12/19 00:46:51;;;;;;;17.67;8.45;;;;;;;5.25;100.00;103423.75;2107231;28;20036;-68
2021/12/19 00:47:51;;;;;;;15.43;8.73;;;;;;;5.24;100.00;103416.81;2107228;28;20020;-69
2021/12/19 00:48:54;;;;;;;14.87;7.33;;;;;;;5.23;100.00;103420.22;2107209;28;20024;-69
2021/12/19 00:49:55;;;;;;;18.35;9.48;;;;;;;5.23;100.00;103420.22;2098128;28;20119;-69
2021/12/19 00:50:55;;;;;;;11.95;6.07;;;;;;;5.23;100.00;103415.94;2098293;28;20044;-68
2021/12/19 00:51:55;;;;;;;15.80;8.50;;;;;;;5.23;100.00;103415.94;2107047;28;20045;-68
2021/12/19 00:52:56;;;;;;;14.30;7.83;;;;;;;5.24;100.00;103414.22;2107241;28;20055;-68
2021/12/19 00:53:56;;;;;;;16.38;8.50;;;;;;;5.24;100.00;103419.41;2098211;28;20024;-68
2021/12/19 00:54:56;;;;;;;16.37;8.40;;;;;;;5.23;100.00;103417.63;2098261;28;20063;-68
2021/12/19 00:55:57;;;;;;;14.87;9.17;;;;;;;5.23;100.00;103415.94;2098153;28;20111;-68
2021/12/19 00:56:58;;;;;;;12.73;7.95;;;;;;;5.23;100.00;103415.94;2098250;28;20084;-68
2021/12/19 00:57:58;;;;;;;16.70;7.60;;;;;;;5.24;100.00;103416.81;2107224;28;20507;-68
2021/12/19 00:58:58;;;;;;;13.07;6.70;;;;;;;5.24;100.00;103416.81;2107214;28;20030;-68
2021/12/19 00:59:58;;;;;;;14.03;7.47;;;;;;;5.24;100.00;103419.41;2107218;28;20060;-69
2021/12/19 01:01:00;;;;;;;18.43;8.57;;;;;;;5.23;100.00;103417.63;2098141;28;20066;-69
2021/12/19 01:02:00;;;;;;;15.85;7.70;;;;;;;5.21;100.00;103412.44;2098986;28;20114;-68
2021/12/19 01:03:02;;;;;;;18.47;8.50;;;;;;;5.21;100.00;103416.75;2099176;28;20111;-68
2021/12/19 01:04:10;;;;;;;17.65;8.45;;;;;;;5.21;100.00;103419.34;2099609;28;20044;-67
2021/12/19 01:05:11;;;;;;;15.63;6.93;;;;;;;5.20;100.00;103413.28;2107166;28;20438;-68
2021/12/19 01:06:12;;;;;;;15.57;7.55;;;;;;;5.19;100.00;103411.53;2099794;28;20046;-68
2021/12/19 01:07:12;;;;;;;12.85;6.72;;;;;;;5.17;100.00;103414.94;2099264;28;20025;-68
2021/12/19 01:08:13;;;;;;;14.47;6.57;;;;;;;5.16;100.00;103414.03;2109115;28;20028;-68
2021/12/19 01:09:14;;;;;;;19.25;8.68;;;;;;;5.16;100.00;103414.03;2107191;28;20056;-69
2021/12/19 01:10:15;;;;;;;17.20;8.73;;;;;;;5.14;100.00;103416.59;2109533;28;20027;-68
2021/12/19 01:11:16;;;;;;;19.58;8.25;;;;;;;5.15;100.00;103412.31;2099211;28;20036;-69
2021/12/19 01:12:16;;;;;;;18.63;8.10;;;;;;;5.14;100.00;103420.91;2093109;28;20041;-68
2021/12/19 01:13:17;;;;;;;21.07;9.97;;;;;;;5.13;100.00;103403.63;2098131;28;20036;-68
2021/12/19 01:14:18;;;;;;;14.30;8.02;;;;;;;5.12;100.00;103402.75;2099245;28;20033;-69
2021/12/19 01:15:19;;;;;;;18.33;8.68;;;;;;;5.10;100.00;103404.44;2091226;28;20034;-68
2021/12/19 01:16:19;;;;;;;16.75;7.57;;;;;;;5.11;100.00;103406.19;2099402;28;20036;-68
2021/12/19 01:17:20;;;;;;;15.97;8.20;;;;;;;5.09;100.00;103404.41;2107366;28;20020;-68
2021/12/19 01:18:20;;;;;;;19.97;8.87;;;;;;;5.08;100.00;103400.94;2107930;28;20063;-69
2021/12/19 01:19:22;;;;;;;15.77;7.93;;;;;;;5.08;100.00;103411.31;2107596;28;20277;-69
2021/12/19 01:20:25;;;;;;;17.80;8.02;;;;;;;5.08;100.00;103406.13;2108405;28;20024;-69
2021/12/19 01:21:26;;;;;;;15.20;7.30;;;;;;;5.07;100.00;103404.38;2107644;28;20024;-68
2021/12/19 01:22:26;;;;;;;18.95;8.77;;;;;;;5.06;100.00;103400.03;2107626;28;20020;-68
2021/12/19 01:23:26;;;;;;;15.53;7.47;;;;;;;5.07;100.00;103399.22;2107336;28;20039;-68
2021/12/19 01:24:27;;;;;;;17.42;9.07;;;;;;;5.07;100.00;103401.81;2107244;28;20031;-67
2021/12/19 01:25:27;;;;;;;18.83;8.73;;;;;;;5.06;100.00;103396.59;2098024;28;20052;-69
2021/12/19 01:26:28;;;;;;;16.77;9.13;;;;;;;5.06;100.00;103401.75;2098191;28;20024;-67
2021/12/19 01:27:28;;;;;;;11.30;5.90;;;;;;;5.06;100.00;103394.84;2106283;28;20056;-68
2021/12/19 01:28:28;;;;;;;18.93;9.33;;;;;;;5.06;100.00;103394.84;2106532;28;20032;-68
2021/12/19 01:29:29;;;;;;;17.07;9.57;;;;;;;5.07;100.00;103403.50;2090507;28;20025;-69
2021/12/19 01:30:29;;;;;;;14.47;7.33;;;;;;;5.04;100.00;103399.13;2089914;28;20378;-68
2021/12/19 01:31:30;;;;;;;19.90;9.13;;;;;;;5.04;100.00;103399.13;2090041;28;20037;-68
2021/12/19 01:32:30;;;;;;;15.23;7.40;;;;;;;5.03;100.00;103393.06;2090366;28;20036;-67
2021/12/19 01:33:30;;;;;;;15.47;8.17;;;;;;;5.04;100.00;103393.97;2089937;28;20191;-68
2021/12/19 01:34:30;;;;;;;22.53;9.63;;;;;;;5.05;100.00;103400.00;2098049;28;20021;-69
2021/12/19 01:35:31;;;;;;;18.20;9.33;;;;;;;5.05;100.00;103393.09;2098360;28;20021;-68
2021/12/19 01:36:31;;;;;;;16.40;9.13;;;;;;;5.05;100.00;103398.28;2089732;28;20051;-69
2021/12/19 01:37:31;;;;;;;14.97;8.00;;;;;;;5.06;100.00;103396.59;2090592;28;20025;-69
2021/12/19 01:38:33;;;;;;;16.90;8.47;;;;;;;5.07;100.00;103394.03;2090308;28;20048;-69
2021/12/19 01:39:33;;;;;;;17.58;10.05;;;;;;;5.06;100.00;103392.25;2090210;28;20013;-69
2021/12/19 01:40:34;;;;;;;15.00;8.17;;;;;;;5.06;100.00;103387.09;2090127;28;20490;-69
2021/12/19 01:41:34;;;;;;;17.73;9.10;;;;;;;5.06;100.00;103387.09;2090221;28;20411;-69
2021/12/19 01:42:38;;;;;;;15.87;8.37;;;;;;;5.05;100.00;103387.94;2090188;28;20606;-69
2021/12/19 01:43:38;;;;;;;17.52;8.65;;;;;;;5.06;100.00;103392.25;2090189;28;20032;-68
2021/12/19 01:44:39;;;;;;;13.93;7.57;;;;;;;5.05;100.00;103390.53;2090176;28;20048;-69
2021/12/19 01:45:40;;;;;;;11.48;6.25;;;;;;;5.05;100.00;103389.63;2090167;28;20028;-69
2021/12/19 01:46:41;;;;;;;;;;;;;;;5.05;100.00;103393.09;2089876;28;20094;-69
2021/12/19 01:47:41;;;;;;;14.38;6.80;;;;;;;5.03;100.00;103387.91;2089550;28;19944;-69
2021/12/19 01:48:41;;;;;;;13.20;6.78;;;;;;;5.03;100.00;103392.19;2090200;28;20419;-69
2021/12/19 01:49:42;;;;;;;18.27;9.00;;;;;;;5.02;100.00;103390.44;2090102;28;20356;-69
2021/12/19 01:50:42;;;;;;;15.67;6.73;;;;;;;5.01;100.00;103394.78;2090218;28;20044;-68
2021/12/19 01:51:43;;;;;;;15.67;7.37;;;;;;;5.02;100.00;103385.28;2089964;28;20489;-68
2021/12/19 01:52:43;;;;;;;16.23;7.07;;;;;;;5.03;100.00;103381.84;2090030;28;20545;-68
2021/12/19 01:53:44;;;;;;;12.47;7.13;;;;;;;5.03;100.00;103381.84;2090038;28;20094;-68
2021/12/19 01:54:45;;;;;;;17.23;8.40;;;;;;;5.04;100.00;103381.03;2090009;28;20108;-67
2021/12/19 01:55:48;;;;;;;17.65;7.72;;;;;;;5.04;100.00;103378.44;2091053;28;20063;-68
2021/12/19 01:56:48;;;;;;;18.42;8.98;;;;;;;5.02;100.00;103380.09;2082259;28;20022;-67
2021/12/19 01:57:49;;;;;;;18.00;8.77;;;;;;;5.01;100.00;103384.41;2098657;28;20020;-69
2021/12/19 01:58:49;;;;;;;18.63;8.30;;;;;;;5.01;100.00;103383.53;2099073;28;20116;-67
2021/12/19 01:59:51;;;;;;;19.43;7.53;;;;;;;5.01;100.00;103380.94;2090307;28;20295;-68
2021/12/19 02:00:56;;;;;;;15.52;7.22;;;;;;;4.99;100.00;103377.44;2091630;28;20033;-68
2021/12/19 02:01:57;;;;;;;18.42;8.98;;;;;;;4.99;100.00;103378.31;2089445;28;20056;-67
2021/12/19 02:02:57;;;;;;;17.65;8.27;;;;;;;4.98;100.00;103378.28;2090527;28;20037;-68
2021/12/19 02:03:58;;;;;;;19.13;8.05;;;;;;;4.97;100.00;103379.13;2089471;28;20454;-67
2021/12/19 02:04:58;;;;;;;17.30;7.57;;;;;;;4.98;100.00;103378.28;2091094;28;20025;-68
2021/12/19 02:05:58;;;;;;;17.03;7.17;;;;;;;4.97;100.00;103371.38;2091191;28;20029;-69
2021/12/19 02:07:00;;;;;;;14.77;6.10;;;;;;;4.96;100.00;103375.66;2091342;28;20025;-69
2021/12/19 02:08:03;;;;;;;18.80;8.07;;;;;;;4.96;100.00;103372.22;2090933;28;20111;-69
2021/12/19 02:09:07;;;;;;;14.38;7.13;;;;;;;4.96;100.00;103375.66;2090465;28;20028;-68
2021/12/19 02:10:09;;;;;;;18.92;8.70;;;;;;;4.95;100.00;103370.44;2091778;28;20020;-69
2021/12/19 02:11:09;;;;;;;14.98;6.53;;;;;;;4.95;100.00;103373.03;2091489;28;20024;-68
2021/12/19 02:12:11;;;;;;;15.32;6.97;;;;;;;4.96;100.00;103367.91;2089882;28;20091;-68
2021/12/19 02:13:15;;;;;;;17.35;8.45;;;;;;;4.97;100.00;103371.38;2099202;28;20033;-68
2021/12/19 02:14:15;;;;;;;18.52;7.93;;;;;;;4.96;100.00;103375.66;2097764;28;20028;-67
2021/12/19 02:15:19;;;;;;;16.33;7.17;;;;;;;4.96;100.00;103377.38;2090812;28;20037;-68
2021/12/19 02:16:20;;;;;;;17.40;7.47;;;;;;;4.95;100.00;103368.75;2090337;28;20029;-68
2021/12/19 02:17:21;;;;;;;14.65;6.90;;;;;;;4.95;100.00;103371.34;2092154;28;20490;-68
2021/12/19 02:18:22;;;;;;;13.20;6.40;;;;;;;4.95;100.00;103368.75;2090184;28;20056;-69
2021/12/19 02:19:25;;;;;;;14.77;7.07;;;;;;;4.94;100.00;103369.59;2090235;28;20021;-69
2021/12/19 02:20:32;;;;;;;15.73;7.53;;;;;;;4.96;100.00;103369.63;2081651;28;20025;-68
2021/12/19 02:21:32;;;;;;;20.90;8.68;;;;;;;4.94;100.00;103368.69;2098633;28;20431;-69
2021/12/19 02:22:32;;;;;;;13.48;6.55;;;;;;;4.95;100.00;103370.44;2097722;28;20033;-68
2021/12/19 02:23:33;;;;;;;16.03;7.10;;;;;;;4.94;100.00;103371.28;2089934;28;20513;-69
2021/12/19 02:24:34;;;;;;;14.17;5.77;;;;;;;4.93;100.00;103369.56;2090214;28;20466;-68
2021/12/19 02:25:34;;;;;;;10.75;5.47;;;;;;;4.92;100.00;103362.63;2090548;28;20279;-69
2021/12/19 02:26:38;;;;;;;15.80;6.03;;;;;;;4.90;100.00;103366.03;2089935;28;20032;-69
2021/12/19 02:27:38;;;;;;;15.20;7.30;;;;;;;4.88;100.00;103370.31;2089881;28;20093;-69
2021/12/19 02:28:38;;;;;;;16.67;8.43;;;;;;;4.87;100.00;103371.19;2088955;28;20024;-69
2021/12/19 02:29:39;;;;;;;14.10;6.67;;;;;;;4.87;100.00;103365.13;2089390;28;20075;-68
2021/12/19 02:30:39;;;;;;;16.67;8.37;;;;;;;4.87;100.00;103368.59;2081047;28;20383;-68
2021/12/19 02:31:40;;;;;;;12.27;5.43;;;;;;;4.85;100.00;103359.91;2089227;28;20059;-68
2021/12/19 02:32:41;;;;;;;14.43;6.35;;;;;;;4.85;100.00;103356.44;2089342;28;20021;-67
2021/12/19 02:33:53;;;;;;;16.83;7.22;;;;;;;4.86;100.00;103356.47;2089314;28;20041;-67
2021/12/19 02:34:55;;;;;;;14.13;6.18;;;;;;;4.86;100.00;103353.88;2089825;28;20536;-69
2021/12/19 02:36:05;;;;;;;18.90;7.78;;;;;;;4.85;100.00;103357.31;2089888;28;20029;-69
2021/12/19 02:37:18;;;;;;;15.48;6.93;;;;;;;4.86;100.00;103353.88;2089878;28;20024;-68
2021/12/19 02:39:18;;;;;;;18.50;7.35;;;;;;;4.85;100.00;103352.13;2089878;28;20474;-69
2021/12/19 02:48:56;;;;;;;14.07;6.28;;;;;;;4.76;100.00;103336.44;2089823;28;20041;-69
2021/12/19 02:49:57;;;;;;;22.00;8.15;;;;;;;4.76;100.00;103341.59;2089096;28;20016;-69
2021/12/19 02:50:58;;;;;;;16.17;7.40;;;;;;;4.76;100.00;103341.59;2089238;28;20032;-67
2021/12/19 02:51:58;;;;;;;17.80;7.82;;;;;;;4.75;100.00;103337.25;2089731;28;20055;-68
2021/12/19 02:52:59;;;;;;;17.50;8.50;;;;;;;4.74;100.00;103335.50;2089805;28;20049;-68
2021/12/19 02:54:00;;;;;;;19.88;8.60;;;;;;;4.75;100.00;103335.53;2089784;28;20048;-68
2021/12/19 02:55:01;;;;;;;15.10;6.75;;;;;;;4.73;100.00;103336.34;2089801;28;20393;-68
2021/12/19 02:56:04;;;;;;;16.70;8.17;;;;;;;4.74;100.00;103335.50;2089793;28;20111;-68
2021/12/19 02:57:05;;;;;;;22.83;8.75;;;;;;;4.74;100.00;103332.91;2089777;28;20475;-67
2021/12/19 02:58:05;;;;;;;18.75;8.10;;;;;;;4.73;100.00;103326.00;2089830;28;20079;-67
2021/12/19 02:59:06;;;;;;;19.60;8.47;;;;;;;4.74;100.00;103325.16;2089821;28;20021;-69
2021/12/19 03:00:09;;;;;;;16.90;6.37;;;;;;;4.72;100.00;103326.84;2089847;28;20031;-67
2021/12/19 03:01:15;;;;;;;18.67;7.65;;;;;;;4.73;100.00;103326.00;2089780;28;20029;-67
2021/12/19 03:02:16;;;;;;;15.32;7.32;;;;;;;4.72;100.00;103325.13;2089097;28;20044;-67
2021/12/19 03:03:17;;;;;;;17.83;7.47;;;;;;;4.74;100.00;103322.56;2080977;28;20441;-70
2021/12/19 03:04:17;;;;;;;22.07;9.43;;;;;;;4.72;100.00;103322.53;2089208;28;20021;-69
2021/12/19 03:05:17;;;;;;;16.63;8.37;;;;;;;4.72;100.00;103329.44;2089742;28;20033;-67
2021/12/19 03:06:18;;;;;;;17.87;7.83;;;;;;;4.71;100.00;103322.50;2089802;28;20445;-67
2021/12/19 03:07:18;;;;;;;14.63;5.57;;;;;;;4.71;100.00;103319.91;2089727;28;20090;-67
2021/12/19 03:08:19;;;;;;;22.45;8.95;;;;;;;4.72;100.00;103326.84;2089745;28;20120;-68
2021/12/19 03:12:07;;;;;;;16.55;7.50;;;;;;;4.70;100.00;103325.94;2089722;28;20021;-67
2021/12/19 03:13:23;;;;;;;19.77;9.25;;;;;;;4.69;100.00;103330.22;2089722;28;20033;-69
2021/12/19 03:18:22;;;;;;;20.73;9.35;;;;;;;4.69;100.00;103329.34;2090439;28;20029;-67
2021/12/19 03:19:22;;;;;;;16.37;6.83;;;;;;;4.68;100.00;103322.44;2091615;28;20044;-67
2021/12/19 03:20:23;;;;;;;22.13;8.53;;;;;;;4.68;100.00;103322.44;2091355;28;20073;-67
2021/12/19 03:21:25;;;;;;;21.92;10.18;;;;;;;4.69;100.00;103319.00;2089712;28;20530;-68
2021/12/19 03:22:25;;;;;;;24.17;8.95;;;;;;;4.68;100.00;103317.28;2089806;28;20029;-68
2021/12/19 03:23:26;;;;;;;20.33;8.70;;;;;;;4.68;100.00;103317.28;2080856;28;20018;-67
2021/12/19 03:24:26;;;;;;;24.60;9.05;;;;;;;4.69;100.00;103314.69;2089461;28;20464;-68
2021/12/19 03:25:29;;;;;;;24.60;9.97;;;;;;;4.70;100.00;103313.00;2089334;28;20071;-68
2021/12/19 03:26:29;;;;;;;20.70;9.13;;;;;;;4.70;100.00;103305.22;2089983;28;20029;-68
2021/12/19 03:27:29;;;;;;;21.03;9.37;;;;;;;4.69;100.00;103303.50;2105071;28;20450;-68
2021/12/19 03:28:30;;;;;;;28.00;10.23;;;;;;;4.69;100.00;103303.50;2106971;28;20036;-68
2021/12/19 03:29:30;;;;;;;22.27;10.10;;;;;;;4.69;100.00;103303.50;2106909;28;20060;-68
2021/12/19 03:30:32;;;;;;;27.70;8.80;;;;;;;4.70;100.00;103300.06;2107002;28;20075;-68
2021/12/19 03:31:32;;;;;;;18.25;8.38;;;;;;;4.69;100.00;103296.59;2106204;28;20054;-67
2021/12/19 03:32:32;;;;;;;24.07;9.57;;;;;;;4.70;100.00;103300.06;2106286;28;20032;-67
2021/12/19 03:33:35;;;;;;;22.00;9.07;;;;;;;4.68;100.00;103296.59;2097242;28;20143;-68
2021/12/19 03:34:35;;;;;;;24.35;10.27;;;;;;;4.67;100.00;103290.53;2097747;28;20021;-67
2021/12/19 03:35:37;;;;;;;17.37;7.07;;;;;;;4.68;100.00;103291.41;2106312;28;20039;-68
2021/12/19 03:36:37;;;;;;;;;;;;;;;4.68;100.00;103291.41;2097763;28;20024;-67
2021/12/19 03:37:38;;;;;;;17.05;8.25;;;;;;;4.67;100.00;103290.53;2097259;28;19916;-67
2021/12/19 03:38:42;;;;;;;20.83;7.40;;;;;;;4.64;100.00;103288.75;2106251;28;20140;-68
2021/12/19 03:39:56;;;;;;;17.30;7.25;;;;;;;4.64;100.00;103288.75;2106260;28;20048;-68
2021/12/19 03:41:14;;;;;;;25.58;9.55;;;;;;;4.64;100.00;103290.44;2107097;28;20095;-67
2021/12/19 03:42:14;;;;;;;20.80;8.85;;;;;;;4.64;100.00;103291.34;2107845;28;20103;-68
2021/12/19 03:43:20;;;;;;;22.87;8.80;;;;;;;4.64;100.00;103288.75;2107787;28;20077;-68
2021/12/19 03:44:20;;;;;;;25.48;9.85;;;;;;;4.67;100.00;103287.03;2098770;28;20029;-69
2021/12/19 03:45:23;;;;;;;21.60;9.50;;;;;;;4.68;100.00;103288.81;2090395;28;20032;-69
2021/12/19 03:46:23;;;;;;;24.95;9.85;;;;;;;4.67;100.00;103289.63;2099044;28;20566;-68
2021/12/19 03:47:23;;;;;;;22.57;8.83;;;;;;;4.67;100.00;103289.63;2107672;28;20047;-69
2021/12/19 03:48:24;;;;;;;26.07;9.90;;;;;;;4.66;100.00;103293.97;2107745;28;20067;-68
2021/12/19 03:49:24;;;;;;;17.80;6.70;;;;;;;4.67;100.00;103285.34;2107689;28;20024;-68
2021/12/19 03:50:24;;;;;;;29.00;10.53;;;;;;;4.67;100.00;103284.47;2107750;28;20118;-67
2021/12/19 03:51:25;;;;;;;25.03;7.70;;;;;;;4.67;100.00;103284.47;2107655;28;20020;-67
2021/12/19 03:52:25;;;;;;;29.50;11.43;;;;;;;4.66;100.00;103282.72;2098688;28;20450;-67
2021/12/19 03:53:26;;;;;;;25.90;10.23;;;;;;;4.66;100.00;103278.44;2098735;28;20039;-68
2021/12/19 03:54:26;;;;;;;31.77;10.30;;;;;;;4.66;100.00;103282.72;2107545;28;20024;-67
2021/12/19 03:55:27;;;;;;;20.63;9.80;;;;;;;4.67;100.00;103284.47;2107712;28;20024;-68
2021/12/19 03:56:28;;;;;;;22.35;8.57;;;;;;;4.67;100.00;103274.13;2107752;28;20361;-68
2021/12/19 03:57:28;;;;;;;26.17;9.90;;;;;;;4.67;100.00;103279.28;2098708;28;20303;-68
2021/12/19 03:58:30;;;;;;;21.53;9.10;;;;;;;4.69;100.00;103272.44;2099067;28;20494;-69
2021/12/19 03:59:31;;;;;;;24.50;9.07;;;;;;;4.67;100.00;103275.00;2108253;28;20039;-68
2021/12/19 04:00:32;;;;;;;16.50;6.95;;;;;;;4.68;100.00;103273.31;2108245;28;20090;-68
2021/12/19 04:01:33;;;;;;;18.00;7.43;;;;;;;4.68;100.00;103273.31;2107614;28;20020;-68
2021/12/19 04:02:33;;;;;;;21.63;8.07;;;;;;;4.66;100.00;103269.78;2107833;28;20480;-67
2021/12/19 04:03:34;;;;;;;22.73;8.00;;;;;;;4.67;100.00;103272.41;2107748;28;20032;-67
2021/12/19 04:04:38;;;;;;;24.10;8.87;;;;;;;4.64;100.00;103270.63;2106983;28;20110;-68
2021/12/19 04:05:39;;;;;;;23.38;9.38;;;;;;;4.64;100.00;103269.75;2107022;28;20797;-68
2021/12/19 04:06:39;;;;;;;21.37;9.63;;;;;;;4.64;100.00;103273.22;2107517;28;20012;-68
2021/12/19 04:07:40;;;;;;;23.05;9.15;;;;;;;4.66;100.00;103277.56;2107514;28;20109;-69
2021/12/19 04:08:40;;;;;;;20.93;8.57;;;;;;;4.63;100.00;103266.28;2107573;28;20058;-67
2021/12/19 04:09:40;;;;;;;25.33;10.03;;;;;;;4.60;100.00;103268.81;2107565;28;20030;-67
2021/12/19 04:10:41;;;;;;;17.63;7.60;;;;;;;4.60;100.00;103270.53;2098523;28;20028;-68
2021/12/19 04:11:41;;;;;;;12.73;6.40;;;;;;;4.59;100.00;103271.38;2098500;28;20486;-68
2021/12/19 04:12:43;;;;;;;21.03;8.90;;;;;;;4.58;100.00;103270.50;2107453;28;20484;-70
2021/12/19 04:13:43;;;;;;;17.63;7.78;;;;;;;4.59;100.00;103268.78;2107475;28;20024;-68
2021/12/19 04:14:44;;;;;;;25.17;9.37;;;;;;;4.58;100.00;103265.31;2107520;28;20032;-68
2021/12/19 04:15:45;;;;;;;21.52;9.95;;;;;;;4.55;100.00;103272.16;2107518;28;20103;-67
2021/12/19 04:16:46;;;;;;;23.85;9.32;;;;;;;4.51;100.00;103266.03;2107546;28;20020;-69
2021/12/19 04:17:46;;;;;;;28.13;10.53;;;;;;;4.53;100.00;103261.78;2098412;28;20020;-68
2021/12/19 04:18:46;;;;;;;24.48;10.07;;;;;;;4.54;100.00;103268.69;2098381;28;20062;-69
2021/12/19 04:19:47;;;;;;;16.83;7.13;;;;;;;4.51;100.00;103259.16;2098428;28;20020;-68
2021/12/19 04:20:47;;;;;;;19.57;9.03;;;;;;;4.51;100.00;103263.44;2098606;28;20036;-68
2021/12/19 04:21:48;;;;;;;25.00;9.10;;;;;;;4.53;100.00;103258.31;2098403;28;20013;-67
2021/12/19 04:22:50;;;;;;;17.15;8.05;;;;;;;4.51;100.00;103259.16;2098546;28;20474;-66
2021/12/19 04:23:50;;;;;;;21.08;9.23;;;;;;;4.51;100.00;103253.09;2107494;28;20058;-67
2021/12/19 04:24:50;;;;;;;17.20;8.00;;;;;;;4.51;100.00;103253.09;2098377;28;20069;-67
2021/12/19 04:25:52;;;;;;;21.37;10.30;;;;;;;4.48;100.00;103258.22;2098404;28;20052;-67
2021/12/19 04:26:54;;;;;;;21.50;8.93;;;;;;;4.48;100.00;103253.91;2098429;28;20016;-67
2021/12/19 04:27:54;;;;;;;21.52;9.73;;;;;;;4.45;100.00;103253.81;2107417;28;20066;-68
2021/12/19 04:28:54;;;;;;;21.03;7.13;;;;;;;4.46;100.00;103249.53;2098334;28;20594;-67
2021/12/19 04:29:55;;;;;;;19.17;7.23;;;;;;;4.42;100.00;103251.19;2098547;28;20040;-69
2021/12/19 04:30:55;;;;;;;19.57;8.50;;;;;;;4.45;100.00;103253.81;2107358;28;20040;-68
2021/12/19 04:31:56;;;;;;;20.37;7.80;;;;;;;4.44;100.00;103251.19;2098188;28;20020;-68
2021/12/19 04:33:09;;;;;;;18.00;7.82;;;;;;;4.40;100.00;103249.38;2098471;28;20075;-68
2021/12/19 04:34:09;;;;;;;14.73;6.65;;;;;;;4.38;100.00;103245.06;2107413;28;20046;-68
2021/12/19 04:35:10;;;;;;;18.27;7.60;;;;;;;4.36;100.00;103249.34;2107377;28;20024;-68
2021/12/19 04:36:17;;;;;;;19.65;7.50;;;;;;;4.38;100.00;103246.78;2107405;28;20016;-68
2021/12/19 04:39:02;;;;;;;27.15;8.98;;;;;;;4.34;100.00;103238.09;2100272;28;20039;-68
2021/12/19 04:39:59;;;;;;;16.85;7.40;;;;;;;4.33;100.00;103241.50;2107191;28;20024;-68
2021/12/19 04:41:47;;;;;;;18.90;6.88;;;;;;;4.35;100.00;103237.22;2107291;28;20030;-68
2021/12/19 04:54:02;;;;;;;15.57;6.18;;;;;;;4.36;100.00;103223.50;2107179;28;20043;-68
2021/12/19 05:00:48;;;;;;;15.25;6.60;;;;;;;4.34;100.00;103222.56;2107344;28;20077;-68
2021/12/19 05:03:04;;;;;;;13.98;5.38;;;;;;;4.33;100.00;103222.53;2099488;28;20389;-68
2021/12/19 05:04:10;;;;;;;13.73;5.47;;;;;;;4.33;100.00;103218.25;2107111;28;20039;-67
2021/12/19 05:14:23;;;;;;;10.73;4.28;;;;;;;4.23;100.00;103208.53;2107078;28;20477;-67
2021/12/19 05:15:27;;;;;;;14.48;4.93;;;;;;;4.24;100.00;103213.72;2107074;28;20469;-68
2021/12/19 05:16:28;;;;;;;13.85;5.70;;;;;;;4.24;100.00;103212.84;2098796;28;20031;-68
2021/12/19 05:17:30;;;;;;;14.07;6.30;;;;;;;4.22;100.00;103218.00;2100484;28;20043;-68
2021/12/19 05:18:34;;;;;;;12.23;4.75;;;;;;;4.22;100.00;103209.38;2107044;28;20111;-68
2021/12/19 05:20:53;;;;;;;13.70;5.15;;;;;;;4.25;100.00;103209.44;2108932;28;20031;-68
2021/12/19 05:21:58;;;;;;;14.65;5.47;;;;;;;4.28;100.00;103213.81;2108679;28;20027;-68
2021/12/19 05:23:10;;;;;;;14.57;6.78;;;;;;;4.27;100.00;103212.94;2108152;28;20082;-68
2021/12/19 05:25:18;;;;;;;18.15;6.32;;;;;;;4.28;100.00;103213.81;2107088;28;20388;-68
2021/12/19 05:26:18;;;;;;;14.93;5.80;;;;;;;4.28;100.00;103212.09;2107424;28;20028;-69
2021/12/19 05:27:18;;;;;;;13.13;5.67;;;;;;;4.29;100.00;103216.44;2098235;28;20394;-68
2021/12/19 05:28:19;;;;;;;12.57;5.40;;;;;;;4.30;100.00;103217.28;2098907;28;20477;-69
2021/12/19 05:29:19;;;;;;;11.57;5.43;;;;;;;4.30;100.00;103218.16;2107432;28;20393;-68
2021/12/19 05:30:20;;;;;;;15.10;6.30;;;;;;;4.28;100.00;103219.88;2098862;28;20123;-67
2021/12/19 05:31:21;;;;;;;13.68;6.10;;;;;;;4.26;100.00;103218.94;2097890;28;20033;-68
2021/12/19 05:32:21;;;;;;;11.03;4.60;;;;;;;4.26;100.00;103221.53;2107587;28;20120;-67
2021/12/19 05:33:21;;;;;;;14.37;6.00;;;;;;;4.26;100.00;103221.53;2098203;28;20439;-68
2021/12/19 05:34:22;;;;;;;13.90;5.27;;;;;;;4.27;100.00;103217.25;2098618;28;20070;-68
2021/12/19 05:35:59;;;;;;;14.02;5.95;;;;;;;4.27;100.00;103218.09;2097772;28;20054;-68
2021/12/19 05:45:59;;;;;;;14.10;5.35;;;;;;;4.22;100.00;103214.53;2106890;28;20120;-67